메인 페이지
METAR-TAF:

METAR-TAF

공항 :

New Orleans Naval Air Station Joint Reserve Base (Alvin Callender Field)

뉴올리언스, 루이지애나, 미국

위도: 29-50-14N, 경도: 090-01-28W, 고도: 0m

현재 날씨관측

예보는 25분 전, 12:55시(UTC)에 발표되었습니다.
4kt
온도 19°C
습도 100%
기압 1018 hPa
시정: 11.3km
고도 13000ft 상공 구름 많음
고도 25000ft 상공 구름 많음

METAR: KNBG 061255Z 08004KT 7SM BKN130 BKN250 19/19 A3006 RMK AO2 SLP179 T01890189 $

시각: 08:20 (13:20 UTC)

예보

예보 대상 시간: 06일 07시부터 07일 07시까지 (UTC)
여러 방향의 바람 5kt
시정 10km 이상
맑음
일시적
06일 07시부터 06일 12시까지 (UTC)
kt
시정: 3200m
박무
06일 1400시부터 (UTC)
동남동8kt
시정 10km 이상
고도 3000ft 상공 구름 보통
고도 11000ft 상공 구름 많음
고도 25000ft 상공 구름 많음
07일 0200시부터 (UTC)
여러 방향의 바람 4kt
시정: 0611m
고도 2000ft 상공 구름 조금
고도 3000ft 상공 구름 조금
고도 7000ft 상공 구름 많음
고도 11000ft 상공 흐림

TAF: KNBG 0607/0707 VRB05KT 9999 SKC QNH3000INS TEMPO 0607/0612 00000KT 3200 BR FM061400 12008KT 9999 SCT030 BKN110 BKN250 QNH2996INS FM070200 VRB04KT 9999 FEW020 FEW030 BKN070 OVC110 QNH2993INS AUTOMATED SENSOR METWATCH 0607 TIL 0611 T18/0607Z T24/0618Z FN00085

4,000개 이상의 공항 관측 자료 및 예보 (METAR 및 TAF 보고).

지도상에서 검색 가능한 기상관측소가 노란 점과 빨간 점으로 표시되어 있습니다.

기상관측소 명을 보려면 표시 위로 마우스를 이동하세요.

날씨 관측과 예보를 보려면 클릭하세요.

지도 변경 : 확대하려면 엑스 표시가 있는 녹색 버튼, 축소하려면 빼기 표시가 있는 녹색 버튼, 다음 페이지의 지도를 보려면 녹색 화살표를 클릭하세요.


METAR-TAF: